Time;durP1;ratioP1;P1;durP2;ratioP2;P2;SDS_P1;SDS_P2;PMS_P1;PMS_P2;Temp;Humidity;BMP_temperature;BMP_pressure;BME280_temperature;BME280_humidity;BME280_pressure;Samples;Min_cycle;Max_cycle;Signal;HPM_P1;HPM_P2
2022/07/23 00:00:10;;;;;;;7.78;2.30;;;18.60;99.90;;;;;;4933665;29;20058;-50
2022/07/23 00:02:37;;;;;;;6.28;1.70;;;18.60;99.90;;;;;;4934133;29;20110;-54
2022/07/23 00:05:04;;;;;;;5.03;2.28;;;18.60;99.90;;;;;;4934072;29;20052;-52
2022/07/23 00:07:30;;;;;;;7.03;1.77;;;18.50;99.90;;;;;;4934147;29;20044;-48
2022/07/23 00:09:57;;;;;;;8.10;2.55;;;18.50;99.90;;;;;;4934026;29;20083;-50
2022/07/23 00:12:24;;;;;;;7.07;2.55;;;18.50;99.90;;;;;;4933839;29;20055;-52
2022/07/23 00:14:51;;;;;;;4.13;2.33;;;18.50;99.90;;;;;;4933729;29;20492;-55
2022/07/23 00:17:18;;;;;;;9.93;1.80;;;18.50;99.90;;;;;;4933970;29;20090;-51
2022/07/23 00:19:44;;;;;;;6.60;2.35;;;18.50;99.90;;;;;;4933827;29;20044;-54
2022/07/23 00:22:11;;;;;;;7.78;2.75;;;18.60;99.90;;;;;;4934084;29;20051;-53
2022/07/23 00:24:38;;;;;;;7.63;2.50;;;18.60;99.90;;;;;;4597248;28;10000576;-54
2022/07/23 00:27:05;;;;;;;5.32;2.30;;;18.60;99.90;;;;;;4961398;28;20350;-53
2022/07/23 00:29:32;;;;;;;6.95;2.33;;;18.50;99.90;;;;;;4931242;29;20143;-52
2022/07/23 00:31:59;;;;;;;3.45;1.95;;;18.50;99.90;;;;;;4933437;29;20044;-55
2022/07/23 00:34:25;;;;;;;4.72;1.80;;;18.50;99.90;;;;;;4933531;29;20064;-48
2022/07/23 00:36:53;;;;;;;5.18;2.30;;;18.50;99.90;;;;;;4930644;29;20048;-51
2022/07/23 00:39:23;;;;;;;5.80;2.17;;;18.50;99.90;;;;;;4933708;29;20051;-53
2022/07/23 00:41:50;;;;;;;7.70;2.35;;;18.50;99.90;;;;;;4933202;29;20097;-51
2022/07/23 00:44:24;;;;;;;4.95;2.28;;;18.60;99.90;;;;;;4933621;29;20551;-51
2022/07/23 00:46:53;;;;;;;5.60;2.25;;;18.60;99.90;;;;;;4932935;29;20483;-49
2022/07/23 00:49:24;;;;;;;5.80;1.85;;;18.50;99.90;;;;;;4933432;29;20062;-55
2022/07/23 00:51:51;;;;;;;6.75;1.75;;;18.60;99.90;;;;;;4931847;29;20075;-54
2022/07/23 00:54:18;;;;;;;3.88;2.20;;;18.50;99.90;;;;;;4932094;29;20122;-53
2022/07/23 00:56:45;;;;;;;6.00;2.00;;;18.50;99.90;;;;;;4933290;29;20090;-55
2022/07/23 00:59:12;;;;;;;5.70;2.10;;;18.50;99.90;;;;;;4933289;29;20071;-55
2022/07/23 01:01:39;;;;;;;5.38;2.33;;;18.50;99.90;;;;;;4933081;29;20083;-54
2022/07/23 01:04:06;;;;;;;9.02;2.55;;;18.50;99.90;;;;;;4932969;29;20058;-53
2022/07/23 01:06:35;;;;;;;5.05;1.95;;;18.50;99.90;;;;;;4932891;29;20109;-53
2022/07/23 01:09:02;;;;;;;5.72;2.28;;;18.50;99.90;;;;;;4932121;29;20135;-55
2022/07/23 01:11:30;;;;;;;6.65;2.50;;;18.40;99.90;;;;;;4932723;29;20502;-53
2022/07/23 01:13:56;;;;;;;2.92;1.80;;;18.40;99.90;;;;;;4932850;29;20075;-54
2022/07/23 01:16:24;;;;;;;9.23;2.92;;;18.40;99.90;;;;;;4932650;29;20052;-52
2022/07/23 01:18:51;;;;;;;7.22;2.55;;;18.40;99.90;;;;;;4933003;29;20070;-53
2022/07/23 01:21:18;;;;;;;8.77;2.28;;;18.30;99.90;;;;;;4932734;29;20074;-53
2022/07/23 01:23:44;;;;;;;8.82;1.88;;;18.30;99.90;;;;;;4932573;29;20098;-51
2022/07/23 01:26:11;;;;;;;7.95;2.05;;;18.20;99.90;;;;;;4932950;29;20138;-54
2022/07/23 01:28:38;;;;;;;5.45;2.50;;;18.20;99.90;;;;;;4932624;29;20075;-55
2022/07/23 01:31:05;;;;;;;8.77;2.40;;;18.20;99.90;;;;;;4932795;29;20052;-52
2022/07/23 01:33:31;;;;;;;8.55;2.50;;;18.20;99.90;;;;;;4932571;29;20134;-53
2022/07/23 01:35:58;;;;;;;5.07;2.38;;;18.20;99.90;;;;;;4922170;29;20571;-53
2022/07/23 01:38:25;;;;;;;10.35;2.40;;;18.20;99.90;;;;;;4932202;29;20051;-54
2022/07/23 01:40:52;;;;;;;5.18;1.85;;;18.10;99.90;;;;;;4932732;29;20044;-52
2022/07/23 01:43:21;;;;;;;13.00;3.20;;;18.10;99.90;;;;;;4932150;29;20507;-54
2022/07/23 01:45:51;;;;;;;6.97;2.55;;;18.10;99.90;;;;;;4929069;29;20131;-54
2022/07/23 01:48:18;;;;;;;9.77;2.42;;;18.20;99.90;;;;;;4932219;29;20107;-54
2022/07/23 01:50:46;;;;;;;8.95;2.53;;;18.20;99.90;;;;;;4932632;29;20448;-52
2022/07/23 01:53:14;;;;;;;4.63;1.90;;;18.20;99.90;;;;;;4932281;29;20083;-53
2022/07/23 01:55:41;;;;;;;6.30;2.03;;;18.20;99.90;;;;;;4932135;29;20075;-54
2022/07/23 01:58:08;;;;;;;3.70;2.47;;;18.20;99.90;;;;;;4932044;29;20134;-53
2022/07/23 02:00:35;;;;;;;7.60;2.50;;;18.20;99.90;;;;;;4931944;29;20134;-54
2022/07/23 02:03:02;;;;;;;7.28;1.98;;;18.20;99.90;;;;;;4931741;29;20052;-53
2022/07/23 02:05:30;;;;;;;4.45;1.70;;;18.20;99.90;;;;;;4931997;29;20091;-52
2022/07/23 02:07:56;;;;;;;6.20;2.03;;;18.20;99.90;;;;;;4932038;29;20075;-54
2022/07/23 02:10:24;;;;;;;3.58;1.90;;;18.20;99.90;;;;;;4929696;29;20044;-55
2022/07/23 02:12:50;;;;;;;3.28;1.70;;;18.20;99.90;;;;;;4930235;29;20082;-52
2022/07/23 02:15:17;;;;;;;10.02;1.88;;;18.20;99.90;;;;;;4929971;29;20090;-56
2022/07/23 02:17:44;;;;;;;7.68;2.67;;;18.20;99.90;;;;;;4931636;29;20086;-52
2022/07/23 02:20:11;;;;;;;5.82;2.00;;;18.20;99.90;;;;;;4931053;29;20099;-54
2022/07/23 02:22:38;;;;;;;4.93;1.65;;;18.20;99.90;;;;;;4930761;29;20138;-57
2022/07/23 02:25:06;;;;;;;6.15;1.52;;;18.20;99.90;;;;;;4931554;29;20089;-54
2022/07/23 02:27:33;;;;;;;6.40;1.85;;;18.30;99.90;;;;;;4931642;29;20087;-54
2022/07/23 02:29:59;;;;;;;7.55;1.90;;;18.20;99.90;;;;;;4931278;29;20079;-55
2022/07/23 02:32:26;;;;;;;6.43;2.00;;;18.30;99.90;;;;;;4931532;29;20090;-54
2022/07/23 02:34:53;;;;;;;6.35;1.90;;;18.20;99.90;;;;;;4931531;29;20051;-54
2022/07/23 02:37:20;;;;;;;6.47;1.90;;;18.20;99.90;;;;;;4931352;29;20071;-52
2022/07/23 02:39:48;;;;;;;5.90;1.67;;;18.30;99.90;;;;;;4931219;29;20079;-52
2022/07/23 02:42:15;;;;;;;7.15;2.28;;;18.30;99.90;;;;;;4931210;29;20050;-54
2022/07/23 02:44:42;;;;;;;7.78;1.95;;;18.30;99.90;;;;;;4931299;29;20499;-54
2022/07/23 02:47:08;;;;;;;4.88;2.10;;;18.20;99.90;;;;;;4931568;29;20090;-54
2022/07/23 02:49:36;;;;;;;9.23;1.67;;;18.20;99.90;;;;;;4931395;29;20077;-54
2022/07/23 02:52:03;;;;;;;4.13;1.85;;;18.30;99.90;;;;;;4931412;29;20433;-52
2022/07/23 02:54:29;;;;;;;6.18;1.70;;;18.20;99.90;;;;;;4931176;29;20075;-54
2022/07/23 02:56:56;;;;;;;6.95;1.75;;;18.20;99.90;;;;;;4931167;29;20064;-52
2022/07/23 02:59:23;;;;;;;7.88;2.13;;;18.20;99.90;;;;;;4931186;29;20115;-55
2022/07/23 03:01:50;;;;;;;7.82;1.75;;;18.20;99.90;;;;;;4931574;29;20044;-50
2022/07/23 03:04:16;;;;;;;9.02;2.13;;;18.20;99.90;;;;;;4929889;29;20076;-50
2022/07/23 03:06:43;;;;;;;4.28;1.75;;;18.20;99.90;;;;;;4931215;29;20696;-54
2022/07/23 03:09:10;;;;;;;12.77;2.80;;;18.20;99.90;;;;;;4931135;29;20075;-52
2022/07/23 03:11:37;;;;;;;6.00;2.10;;;18.20;99.90;;;;;;4930757;29;20079;-50
2022/07/23 03:14:03;;;;;;;12.45;3.30;;;18.20;99.90;;;;;;4931166;29;20533;-51
2022/07/23 03:16:30;;;;;;;5.03;1.92;;;18.10;99.90;;;;;;4930818;29;20062;-53
2022/07/23 03:18:57;;;;;;;7.38;1.90;;;18.20;99.90;;;;;;4927942;29;20143;-55
2022/07/23 03:21:25;;;;;;;5.65;1.60;;;18.20;99.90;;;;;;4931266;29;20099;-54
2022/07/23 03:23:52;;;;;;;6.82;2.10;;;18.10;99.90;;;;;;4930996;29;20052;-54
2022/07/23 03:26:18;;;;;;;2.92;1.83;;;18.10;99.90;;;;;;4930989;29;20071;-52
2022/07/23 03:28:45;;;;;;;7.00;2.40;;;18.00;99.90;;;;;;4930982;29;20240;-56
2022/07/23 03:31:12;;;;;;;3.88;1.90;;;18.00;99.90;;;;;;4932473;29;20122;-55
2022/07/23 03:33:39;;;;;;;5.60;1.98;;;18.00;99.90;;;;;;4930027;29;20502;-52
2022/07/23 03:36:06;;;;;;;4.07;1.98;;;18.00;99.90;;;;;;4933341;29;20488;-52
2022/07/23 03:38:35;;;;;;;6.95;2.00;;;18.00;99.90;;;;;;4934680;29;20047;-53
2022/07/23 03:41:03;;;;;;;4.25;1.88;;;17.90;99.90;;;;;;4934382;29;20053;-50
2022/07/23 03:43:31;;;;;;;5.43;2.13;;;17.80;99.90;;;;;;4934539;29;20134;-52
2022/07/23 03:45:58;;;;;;;4.50;2.97;;;17.90;99.90;;;;;;4917287;29;20086;-52
2022/07/23 03:48:25;;;;;;;6.68;2.40;;;17.90;99.90;;;;;;4934317;29;20051;-55
2022/07/23 03:50:52;;;;;;;4.22;1.80;;;17.90;99.90;;;;;;4934411;29;20412;-55
2022/07/23 03:53:18;;;;;;;10.10;4.03;;;17.80;99.90;;;;;;4934279;29;20051;-55
2022/07/23 03:55:45;;;;;;;12.32;2.72;;;17.80;99.90;;;;;;4934519;29;20138;-52
2022/07/23 03:58:12;;;;;;;6.07;2.00;;;17.80;99.90;;;;;;4933904;29;20500;-54
2022/07/23 04:00:39;;;;;;;7.25;2.00;;;17.80;99.90;;;;;;4934353;29;20498;-49
2022/07/23 04:03:06;;;;;;;7.68;2.25;;;17.80;99.90;;;;;;4932252;29;20150;-52
2022/07/23 04:05:33;;;;;;;6.47;2.10;;;17.80;99.90;;;;;;4933938;29;20487;-54
2022/07/23 04:08:00;;;;;;;7.28;2.60;;;17.90;99.90;;;;;;4933900;29;20135;-51
2022/07/23 04:10:27;;;;;;;5.32;1.98;;;17.80;99.90;;;;;;4933836;29;20079;-53
2022/07/23 04:12:54;;;;;;;7.18;2.13;;;17.80;99.90;;;;;;4934152;29;20141;-49
2022/07/23 04:15:20;;;;;;;4.00;1.98;;;17.80;99.90;;;;;;4933711;29;20533;-52
2022/07/23 04:17:47;;;;;;;9.75;2.40;;;17.80;99.90;;;;;;4934162;29;20082;-53
2022/07/23 04:20:14;;;;;;;7.25;2.55;;;17.80;99.90;;;;;;4933695;29;20142;-52
2022/07/23 04:22:41;;;;;;;8.75;2.72;;;17.80;99.90;;;;;;4933735;29;20058;-48
2022/07/23 04:25:08;;;;;;;9.05;2.58;;;17.80;99.90;;;;;;4933701;29;20111;-51
2022/07/23 04:27:35;;;;;;;8.02;2.05;;;17.90;99.90;;;;;;4933742;29;20083;-50
2022/07/23 04:30:02;;;;;;;6.25;1.88;;;17.90;99.90;;;;;;4933362;29;20075;-54
2022/07/23 04:32:28;;;;;;;5.53;2.20;;;17.90;99.90;;;;;;4933583;29;20101;-50
2022/07/23 04:34:55;;;;;;;7.75;2.25;;;18.00;99.90;;;;;;4933516;29;20075;-53
2022/07/23 04:37:22;;;;;;;9.07;3.88;;;17.90;99.90;;;;;;4932896;29;20134;-54
2022/07/23 04:39:49;;;;;;;7.88;2.47;;;18.00;99.90;;;;;;4932812;29;20078;-53
2022/07/23 04:42:15;;;;;;;8.35;2.22;;;18.00;99.90;;;;;;4932992;29;20075;-53
2022/07/23 04:44:42;;;;;;;7.15;2.75;;;18.00;99.90;;;;;;4932646;29;20135;-51
2022/07/23 04:47:10;;;;;;;8.82;3.22;;;18.00;99.90;;;;;;4932764;29;20134;-55
2022/07/23 04:49:38;;;;;;;12.63;3.88;;;18.00;99.90;;;;;;4931395;29;20401;-52
2022/07/23 04:52:05;;;;;;;4.63;2.35;;;17.90;99.90;;;;;;4931418;29;20169;-52
2022/07/23 04:54:32;;;;;;;5.07;2.10;;;17.90;99.90;;;;;;4931567;29;20107;-48
2022/07/23 04:56:59;;;;;;;8.90;2.63;;;17.80;99.90;;;;;;4931463;29;20086;-52
2022/07/23 04:59:26;;;;;;;11.52;3.92;;;17.80;99.90;;;;;;4930531;29;20134;-52
2022/07/23 05:01:52;;;;;;;8.10;2.65;;;17.70;99.90;;;;;;4929885;29;20090;-55
2022/07/23 05:04:19;;;;;;;7.35;2.17;;;17.70;99.90;;;;;;4930583;29;20047;-51
2022/07/23 05:06:46;;;;;;;7.43;2.17;;;17.70;99.90;;;;;;4930848;29;20571;-51
2022/07/23 05:09:13;;;;;;;6.53;2.80;;;17.60;99.90;;;;;;4929407;29;20075;-50
2022/07/23 05:11:40;;;;;;;9.52;2.72;;;17.70;99.90;;;;;;4930597;29;20110;-51
2022/07/23 05:14:06;;;;;;;6.57;2.63;;;17.70;99.90;;;;;;4931461;29;20495;-53
2022/07/23 05:16:33;;;;;;;7.82;2.38;;;17.60;99.90;;;;;;4923482;29;20056;-55
2022/07/23 05:19:00;;;;;;;7.25;2.42;;;17.60;99.90;;;;;;4932275;29;20163;-51
2022/07/23 05:21:27;;;;;;;4.93;2.42;;;17.60;99.90;;;;;;4932409;29;20074;-48
2022/07/23 05:23:54;;;;;;;6.38;2.42;;;17.60;99.90;;;;;;4932495;29;20135;-53
2022/07/23 05:26:21;;;;;;;6.35;2.92;;;17.60;99.90;;;;;;4932128;29;20488;-53
2022/07/23 05:28:48;;;;;;;7.72;3.45;;;17.60;99.90;;;;;;4932317;29;20097;-53
2022/07/23 05:31:16;;;;;;;9.73;2.70;;;17.60;99.90;;;;;;4931882;29;20044;-51
2022/07/23 05:33:43;;;;;;;4.03;2.45;;;17.70;99.90;;;;;;4932118;29;20054;-52
2022/07/23 05:36:09;;;;;;;6.05;2.60;;;17.70;99.90;;;;;;4932097;29;20074;-51
2022/07/23 05:38:36;;;;;;;8.95;2.97;;;17.80;99.90;;;;;;4928890;29;20130;-51
2022/07/23 05:41:03;;;;;;;10.98;2.60;;;17.80;99.90;;;;;;4931944;29;20130;-50
2022/07/23 05:43:30;;;;;;;7.50;2.67;;;17.90;99.90;;;;;;4932041;29;20484;-49
2022/07/23 05:45:57;;;;;;;5.65;2.83;;;17.90;99.90;;;;;;4931987;29;20043;-52
2022/07/23 05:48:23;;;;;;;6.95;2.58;;;18.00;99.90;;;;;;4930689;29;20114;-50
2022/07/23 05:50:50;;;;;;;9.90;2.97;;;18.00;99.90;;;;;;4931943;29;20059;-53
2022/07/23 05:53:17;;;;;;;4.72;2.90;;;18.00;99.90;;;;;;4931240;29;20142;-58
2022/07/23 05:55:44;;;;;;;7.80;3.15;;;18.10;99.90;;;;;;4931474;29;20044;-55
2022/07/23 05:58:11;;;;;;;6.32;2.80;;;18.10;99.90;;;;;;4931636;29;20102;-53
2022/07/23 06:00:37;;;;;;;9.93;3.25;;;18.10;99.90;;;;;;4931397;29;20043;-50
2022/07/23 06:03:04;;;;;;;11.45;3.60;;;18.10;99.90;;;;;;4930245;29;20145;-52
2022/07/23 06:05:31;;;;;;;6.97;3.10;;;18.20;99.90;;;;;;4930357;29;20755;-53
2022/07/23 06:07:58;;;;;;;7.70;3.00;;;18.20;99.90;;;;;;4931302;29;20071;-50
2022/07/23 06:10:25;;;;;;;7.22;3.10;;;18.20;99.90;;;;;;4931504;29;20088;-52
2022/07/23 06:12:52;;;;;;;6.82;3.08;;;18.20;99.90;;;;;;4930383;29;20052;-49
2022/07/23 06:15:24;;;;;;;8.40;3.22;;;18.20;99.90;;;;;;4931425;29;20055;-52
2022/07/23 06:17:51;;;;;;;7.97;2.70;;;18.30;99.90;;;;;;4931273;29;20078;-52
2022/07/23 06:20:18;;;;;;;8.73;3.13;;;18.30;99.90;;;;;;4931391;29;20328;-50
2022/07/23 06:22:44;;;;;;;10.48;3.00;;;18.40;99.90;;;;;;4931137;29;20546;-54
2022/07/23 06:25:11;;;;;;;4.97;2.50;;;18.40;99.90;;;;;;4931445;29;20480;-54
2022/07/23 06:27:46;;;;;;;10.82;3.20;;;18.40;99.90;;;;;;4931362;29;20095;-53
2022/07/23 06:30:13;;;;;;;13.50;2.60;;;18.50;99.90;;;;;;4931583;29;20040;-52
2022/07/23 06:32:43;;;;;;;13.00;3.10;;;18.50;99.90;;;;;;4931348;29;20499;-55
2022/07/23 06:35:10;;;;;;;7.18;3.20;;;18.50;99.90;;;;;;4931421;29;20534;-54
2022/07/23 06:37:37;;;;;;;7.03;2.92;;;18.50;99.90;;;;;;4914368;29;20083;-54
2022/07/23 06:40:04;;;;;;;11.73;3.50;;;18.60;99.90;;;;;;4931131;29;20086;-52
2022/07/23 06:42:32;;;;;;;7.40;3.00;;;18.70;99.90;;;;;;4931339;29;20052;-54
2022/07/23 06:44:59;;;;;;;6.65;3.00;;;18.70;99.90;;;;;;4931339;29;20079;-52
2022/07/23 06:47:25;;;;;;;8.80;3.08;;;18.70;99.90;;;;;;4931367;29;20051;-55
2022/07/23 06:49:52;;;;;;;14.50;3.28;;;18.70;99.90;;;;;;4931177;29;20150;-50
2022/07/23 06:52:19;;;;;;;6.60;2.63;;;18.80;99.90;;;;;;4931126;29;20139;-55
2022/07/23 06:54:46;;;;;;;5.55;3.13;;;18.80;99.90;;;;;;4930793;29;20060;-49
2022/07/23 06:57:12;;;;;;;7.32;3.13;;;18.80;99.90;;;;;;4930979;29;20075;-50
2022/07/23 06:59:40;;;;;;;8.57;3.17;;;18.80;99.90;;;;;;4931118;29;20090;-53
2022/07/23 07:02:07;;;;;;;7.40;3.17;;;18.90;99.90;;;;;;4931242;29;20099;-53
2022/07/23 07:04:35;;;;;;;9.05;3.15;;;19.00;99.90;;;;;;4930309;29;20048;-53
2022/07/23 07:07:01;;;;;;;5.95;2.72;;;19.00;99.90;;;;;;4935183;29;20086;-52
2022/07/23 07:09:28;;;;;;;11.55;2.88;;;19.10;99.90;;;;;;4934576;29;20051;-54
2022/07/23 07:11:56;;;;;;;5.82;2.88;;;19.10;99.90;;;;;;4934968;29;20079;-52
2022/07/23 07:14:23;;;;;;;7.55;2.65;;;19.20;99.90;;;;;;4933344;29;20447;-54
2022/07/23 07:16:50;;;;;;;12.73;2.67;;;19.20;99.90;;;;;;4934729;29;20094;-52
2022/07/23 07:19:16;;;;;;;14.82;3.15;;;19.20;99.90;;;;;;4934760;29;20075;-53
2022/07/23 07:21:43;;;;;;;7.97;3.88;;;19.30;99.90;;;;;;4934581;29;20534;-50
2022/07/23 07:24:10;;;;;;;9.70;4.07;;;19.30;99.90;;;;;;4934717;29;20051;-54
2022/07/23 07:26:38;;;;;;;17.42;7.63;;;19.30;99.90;;;;;;4934377;29;20138;-51
2022/07/23 07:29:05;;;;;;;10.23;3.17;;;19.30;99.90;;;;;;4934500;29;20071;-51
2022/07/23 07:31:32;;;;;;;8.32;3.08;;;19.40;99.90;;;;;;4934658;29;20048;-53
2022/07/23 07:33:59;;;;;;;10.85;3.33;;;19.50;99.90;;;;;;4934220;29;20051;-50
2022/07/23 07:36:26;;;;;;;10.68;3.30;;;19.60;99.90;;;;;;4934253;29;20047;-54
2022/07/23 07:38:53;;;;;;;13.85;4.03;;;19.60;99.90;;;;;;4934333;29;20051;-51
2022/07/23 07:41:23;;;;;;;15.55;3.75;;;19.60;99.90;;;;;;4934361;29;20527;-51
2022/07/23 07:43:50;;;;;;;7.35;2.63;;;19.60;99.90;;;;;;4934225;29;20039;-52
2022/07/23 07:46:17;;;;;;;6.97;2.80;;;19.60;99.90;;;;;;4934099;29;20075;-53
2022/07/23 07:48:44;;;;;;;6.53;3.05;;;19.70;99.90;;;;;;4934171;29;20055;-51
2022/07/23 07:51:11;;;;;;;10.98;3.10;;;19.70;99.90;;;;;;4932849;29;20048;-52
2022/07/23 07:53:38;;;;;;;6.25;2.42;;;19.80;99.90;;;;;;4934398;29;20044;-55
2022/07/23 07:56:05;;;;;;;4.93;2.25;;;19.80;99.90;;;;;;4933925;29;20051;-53
2022/07/23 07:58:33;;;;;;;6.88;3.00;;;19.90;99.90;;;;;;4933952;29;20431;-51
2022/07/23 08:01:02;;;;;;;14.77;2.90;;;20.00;99.90;;;;;;4933642;29;20103;-54
2022/07/23 08:03:29;;;;;;;5.78;2.58;;;20.00;99.90;;;;;;4933978;29;20194;-52
2022/07/23 08:05:56;;;;;;;10.82;2.90;;;20.00;99.90;;;;;;4932769;29;20048;-52
2022/07/23 08:08:22;;;;;;;8.93;2.80;;;20.10;99.90;;;;;;4934086;29;20089;-51
2022/07/23 08:10:49;;;;;;;6.20;2.58;;;20.20;99.90;;;;;;4933609;29;20091;-54
2022/07/23 08:13:16;;;;;;;5.45;2.50;;;20.30;99.90;;;;;;4933899;29;20052;-53
2022/07/23 08:15:43;;;;;;;9.77;2.80;;;20.30;99.90;;;;;;4933635;29;20139;-52
2022/07/23 08:18:12;;;;;;;14.75;3.35;;;20.40;99.90;;;;;;4932862;29;20491;-50
2022/07/23 08:20:39;;;;;;;6.13;2.80;;;20.40;99.90;;;;;;4933629;29;20048;-53
2022/07/23 08:23:07;;;;;;;10.70;2.72;;;20.50;99.90;;;;;;4933737;29;20471;-52
2022/07/23 08:25:38;;;;;;;13.95;3.05;;;20.50;98.80;;;;;;4931566;29;20075;-54
2022/07/23 08:28:06;;;;;;;5.30;2.30;;;20.60;99.00;;;;;;4933641;29;20141;-53
2022/07/23 08:30:33;;;;;;;6.30;2.13;;;20.50;98.80;;;;;;4932326;29;20131;-54
2022/07/23 08:33:07;;;;;;;5.05;2.15;;;20.60;98.30;;;;;;4933380;29;20090;-52
2022/07/23 08:35:35;;;;;;;5.03;2.25;;;20.60;98.00;;;;;;4933398;29;20101;-50
2022/07/23 08:38:07;;;;;;;5.53;2.42;;;20.60;97.60;;;;;;4933336;29;20492;-53
2022/07/23 08:40:42;;;;;;;7.88;2.42;;;20.70;97.10;;;;;;4933352;29;20507;-54
2022/07/23 08:43:14;;;;;;;8.20;2.97;;;20.70;97.30;;;;;;4929718;29;20135;-53
2022/07/23 08:45:45;;;;;;;7.50;2.60;;;20.70;97.50;;;;;;4932204;29;20138;-53
2022/07/23 08:48:13;;;;;;;6.63;2.35;;;20.80;97.50;;;;;;4930245;29;20044;-58
2022/07/23 08:50:56;;;;;;;6.50;2.45;;;20.90;96.20;;;;;;4933149;29;20490;-52
2022/07/23 08:53:25;;;;;;;5.20;2.03;;;20.90;95.30;;;;;;4932999;29;20415;-49
2022/07/23 08:55:53;;;;;;;4.60;2.20;;;20.90;95.60;;;;;;4929009;29;20421;-50
2022/07/23 08:58:20;;;;;;;6.22;2.72;;;20.90;94.90;;;;;;4932502;29;20075;-53
2022/07/23 09:00:53;;;;;;;5.90;2.08;;;21.00;95.70;;;;;;4923502;29;20051;-55
2022/07/23 09:03:31;;;;;;;6.93;2.70;;;21.00;95.50;;;;;;4932834;29;20075;-52
2022/07/23 09:05:58;;;;;;;5.82;2.00;;;21.00;94.80;;;;;;4922629;29;20413;-52
2022/07/23 09:08:39;;;;;;;5.93;1.92;;;21.10;94.80;;;;;;4932955;29;20090;-49
2022/07/23 09:11:08;;;;;;;6.80;2.05;;;21.10;93.60;;;;;;4931931;29;20043;-53
2022/07/23 09:13:49;;;;;;;3.25;1.75;;;21.20;93.20;;;;;;4932651;29;20052;-50
2022/07/23 09:16:23;;;;;;;7.10;2.30;;;21.30;92.40;;;;;;4931415;29;20059;-50
2022/07/23 09:18:57;;;;;;;4.30;1.83;;;21.50;93.40;;;;;;4932397;29;20071;-50
2022/07/23 09:21:24;;;;;;;8.00;1.73;;;21.50;90.90;;;;;;4932912;29;20048;-54
2022/07/23 09:24:10;;;;;;;5.38;2.38;;;21.60;89.50;;;;;;4932545;29;20051;-52
2022/07/23 09:26:37;;;;;;;5.47;2.38;;;21.70;89.10;;;;;;4932940;29;20097;-54
2022/07/23 09:29:17;;;;;;;4.85;1.65;;;21.80;91.30;;;;;;4931084;29;20145;-50
2022/07/23 09:32:05;;;;;;;4.80;2.10;;;21.80;90.30;;;;;;4932464;29;20142;-53
2022/07/23 09:34:38;;;;;;;3.70;1.58;;;21.90;90.70;;;;;;4931106;29;20054;-51
2022/07/23 09:37:18;;;;;;;3.50;1.87;;;22.10;90.60;;;;;;4922860;29;20099;-52
2022/07/23 09:39:46;;;;;;;3.35;1.85;;;22.10;88.90;;;;;;4930743;29;20773;-54
2022/07/23 09:42:22;;;;;;;2.85;1.48;;;22.20;90.30;;;;;;4932157;29;20143;-54
2022/07/23 09:44:50;;;;;;;4.20;1.23;;;22.30;83.00;;;;;;4931535;29;20044;-54
2022/07/23 09:47:17;;;;;;;3.58;1.55;;;22.30;84.00;;;;;;4932259;29;20051;-54
2022/07/23 09:50:12;;;;;;;4.95;1.92;;;22.40;81.40;;;;;;4931745;29;20091;-50
2022/07/23 09:52:48;;;;;;;5.82;1.83;;;22.40;77.60;;;;;;4922903;29;20091;-52
2022/07/23 09:55:16;;;;;;;3.78;1.55;;;22.40;76.20;;;;;;4931749;29;20057;-53
2022/07/23 09:57:56;;;;;;;4.20;1.83;;;22.40;78.90;;;;;;4931745;29;20126;-51
2022/07/23 10:00:23;;;;;;;3.40;1.77;;;22.50;80.60;;;;;;4930043;29;20138;-53
2022/07/23 10:02:49;;;;;;;4.32;1.52;;;22.60;80.90;;;;;;4904096;29;20567;-54
2022/07/23 10:05:16;;;;;;;3.65;1.60;;;22.70;79.00;;;;;;4913756;29;20195;-52
2022/07/23 10:07:43;;;;;;;6.28;1.75;;;22.80;78.20;;;;;;4930255;29;20143;-52
2022/07/23 10:10:15;;;;;;;4.03;1.73;;;23.10;74.50;;;;;;4929811;29;20128;-53
2022/07/23 10:15:29;;;;;;;4.03;2.08;;;23.60;76.10;;;;;;4931325;29;20110;-52
2022/07/23 10:17:56;;;;;;;5.38;1.95;;;23.80;74.40;;;;;;4930392;29;20511;-53
2022/07/23 10:20:22;;;;;;;6.03;2.00;;;24.10;74.70;;;;;;4931590;29;20130;-53
2022/07/23 10:22:59;;;;;;;5.72;1.38;;;24.30;69.60;;;;;;4931205;29;20104;-53
2022/07/23 10:26:20;;;;;;;3.53;1.50;;;24.40;71.10;;;;;;4931484;29;20404;-51
2022/07/23 10:29:30;;;;;;;3.88;1.40;;;24.70;69.00;;;;;;4891040;29;20204;-52
2022/07/23 10:32:02;;;;;;;3.53;1.70;;;25.00;68.00;;;;;;4886053;29;20080;-52
2022/07/23 10:34:55;;;;;;;6.40;1.55;;;25.10;70.30;;;;;;4884121;29;20128;-52
2022/07/23 10:37:27;;;;;;;3.38;1.25;;;25.50;65.40;;;;;;4910478;29;20503;-54
2022/07/23 10:40:09;;;;;;;3.03;1.30;;;25.60;67.60;;;;;;4930947;29;20127;-53
2022/07/23 10:42:36;;;;;;;1.90;1.15;;;25.80;59.70;;;;;;4923863;29;20527;-52
2022/07/23 10:45:24;;;;;;;2.67;1.10;;;25.80;63.60;;;;;;4930923;29;20570;-53
2022/07/23 10:47:51;;;;;;;3.90;1.30;;;25.80;59.10;;;;;;4924415;29;20324;-56
2022/07/23 10:50:21;;;;;;;5.05;1.60;;;26.00;63.10;;;;;;4914019;29;20474;-53
2022/07/23 10:53:12;;;;;;;1.25;1.00;;;26.20;60.40;;;;;;4922270;29;20050;-54
2022/07/23 10:55:40;;;;;;;7.43;1.70;;;26.40;56.70;;;;;;4930802;29;20119;-53
2022/07/23 10:58:07;;;;;;;6.07;1.55;;;26.20;60.10;;;;;;4930830;29;20579;-54
2022/07/23 11:00:35;;;;;;;7.13;2.00;;;25.90;60.50;;;;;;4930468;29;20059;-55
2022/07/23 11:03:25;;;;;;;4.28;1.55;;;25.70;61.00;;;;;;4929500;29;20087;-54
2022/07/23 11:05:52;;;;;;;3.72;1.67;;;25.60;59.60;;;;;;4930682;29;20123;-54
2022/07/23 11:08:20;;;;;;;3.50;1.30;;;25.30;58.10;;;;;;4930773;29;20052;-50
2022/07/23 11:10:54;;;;;;;4.13;1.17;;;24.90;59.50;;;;;;4930781;29;20357;-49
2022/07/23 11:13:21;;;;;;;5.25;1.85;;;24.70;58.40;;;;;;4929641;29;20056;-53
2022/07/23 11:16:00;;;;;;;4.20;1.50;;;24.70;60.40;;;;;;4930614;29;20067;-52
2022/07/23 11:18:39;;;;;;;3.25;1.25;;;24.60;58.50;;;;;;4930545;29;20051;-52
2022/07/23 11:21:29;;;;;;;3.22;1.60;;;24.60;58.80;;;;;;4930637;29;20051;-53
2022/07/23 11:24:09;;;;;;;6.00;1.70;;;24.60;58.90;;;;;;4922768;29;20416;-55
2022/07/23 11:26:56;;;;;;;5.68;1.42;;;24.70;58.30;;;;;;4930561;29;20110;-53
2022/07/23 11:29:26;;;;;;;7.15;1.30;;;24.80;59.20;;;;;;4930925;29;20299;-54
2022/07/23 11:31:57;;;;;;;1.60;0.93;;;24.70;59.20;;;;;;4930357;29;20048;-54
2022/07/23 11:34:31;;;;;;;2.90;1.27;;;24.70;60.80;;;;;;4930335;29;20048;-53
2022/07/23 11:36:59;;;;;;;3.72;1.50;;;24.80;57.80;;;;;;4930466;29;20131;-55
2022/07/23 11:39:26;;;;;;;3.33;1.20;;;24.70;60.20;;;;;;4929163;29;20043;-55
2022/07/23 11:41:53;;;;;;;3.25;1.20;;;24.60;59.50;;;;;;4930399;29;20135;-55
2022/07/23 11:44:27;;;;;;;2.20;1.30;;;24.80;58.60;;;;;;4930183;29;20155;-53
2022/07/23 11:47:03;;;;;;;3.22;1.00;;;24.90;57.30;;;;;;4930743;29;20044;-53
2022/07/23 11:49:31;;;;;;;2.47;0.93;;;25.00;56.50;;;;;;4928895;29;20131;-55
2022/07/23 11:52:11;;;;;;;3.33;1.33;;;25.00;57.60;;;;;;4931530;29;20060;-53
2022/07/23 11:54:50;;;;;;;2.60;1.48;;;25.00;56.90;;;;;;4932441;29;20087;-54
2022/07/23 11:57:17;;;;;;;1.48;0.88;;;25.00;57.00;;;;;;4917071;29;20134;-55
2022/07/23 11:59:45;;;;;;;3.20;1.30;;;25.00;58.30;;;;;;4932330;29;20051;-55
2022/07/23 12:02:13;;;;;;;2.78;1.05;;;25.00;57.40;;;;;;4932521;29;20048;-54
2022/07/23 12:04:40;;;;;;;3.53;1.20;;;25.20;58.30;;;;;;4932381;29;20055;-53
2022/07/23 12:07:33;;;;;;;5.63;1.50;;;25.30;57.30;;;;;;4933781;29;20139;-50
2022/07/23 12:10:04;;;;;;;3.22;1.02;;;25.20;55.20;;;;;;4933556;29;20135;-53
2022/07/23 12:12:40;;;;;;;2.58;0.60;;;25.20;58.10;;;;;;4933706;29;20054;-52
2022/07/23 12:15:07;;;;;;;1.75;1.08;;;25.30;56.60;;;;;;4930080;29;20590;-53
2022/07/23 12:17:36;;;;;;;1.70;1.10;;;25.40;57.10;;;;;;4933993;29;20308;-53
2022/07/23 12:20:09;;;;;;;3.65;1.27;;;25.40;56.30;;;;;;4933199;29;20055;-55
2022/07/23 12:22:50;;;;;;;2.67;1.42;;;25.40;56.00;;;;;;4923935;29;20083;-54
2022/07/23 12:25:19;;;;;;;3.42;1.25;;;25.20;54.70;;;;;;4932346;29;20328;-53
2022/07/23 12:27:46;;;;;;;5.43;1.40;;;25.20;56.60;;;;;;4933519;29;20052;-52
2022/07/23 12:30:27;;;;;;;4.70;1.20;;;25.20;56.50;;;;;;4933081;29;20040;-53
2022/07/23 12:33:00;;;;;;;2.30;1.02;;;25.50;55.30;;;;;;4924194;29;20079;-55
2022/07/23 12:35:37;;;;;;;2.70;1.65;;;25.60;56.20;;;;;;4931677;29;20094;-52
2022/07/23 12:38:07;;;;;;;3.90;1.50;;;25.70;54.90;;;;;;4923290;29;20047;-54
2022/07/23 12:40:45;;;;;;;3.67;1.67;;;25.70;55.50;;;;;;4932757;29;20616;-52
2022/07/23 12:43:22;;;;;;;20.45;7.43;;;25.80;54.00;;;;;;4922735;29;20115;-52
2022/07/23 12:46:03;;;;;;;23.33;8.25;;;26.10;54.10;;;;;;4932914;29;20126;-50
2022/07/23 12:48:37;;;;;;;4.65;1.85;;;26.30;55.00;;;;;;4923942;29;20079;-53
2022/07/23 12:51:06;;;;;;;2.65;1.20;;;26.20;55.00;;;;;;4932268;29;20508;-55
2022/07/23 12:53:37;;;;;;;3.75;1.10;;;26.20;55.80;;;;;;4921980;29;20047;-50
2022/07/23 12:56:14;;;;;;;2.88;0.80;;;26.30;54.40;;;;;;4932655;29;20504;-52
2022/07/23 12:58:45;;;;;;;3.97;1.00;;;26.20;54.60;;;;;;4932877;29;20048;-55